Time;durP1;ratioP1;P1;durP2;ratioP2;P2;SDS_P1;SDS_P2;PMS_P1;PMS_P2;Temp;Humidity;BMP_temperature;BMP_pressure;BME280_temperature;BME280_humidity;BME280_pressure;Samples;Min_cycle;Max_cycle;Signal;HPM_P1;HPM_P2
2022/12/20 04:54:07;;;;;;;7.68;3.97;;;18.60;99.90;;;;;;5514923;23;20950;-76
2022/12/20 04:56:34;;;;;;;6.90;4.53;;;18.60;99.90;;;;;;4902482;29;20225;-77
2022/12/20 04:59:01;;;;;;;6.45;4.13;;;18.60;99.90;;;;;;4902516;29;20585;-76
2022/12/20 05:01:28;;;;;;;10.82;4.90;;;18.60;99.90;;;;;;4902346;29;20631;-77
2022/12/20 05:03:55;;;;;;;5.90;4.00;;;18.50;99.90;;;;;;4902067;29;20229;-76
2022/12/20 05:06:22;;;;;;;8.32;4.50;;;18.50;99.90;;;;;;4902652;29;20209;-76
2022/12/20 05:08:48;;;;;;;8.23;4.32;;;18.40;99.90;;;;;;4903963;29;20201;-75
2022/12/20 05:11:16;;;;;;;11.88;4.88;;;18.40;99.90;;;;;;4902179;29;20692;-75
2022/12/20 05:13:43;;;;;;;8.95;4.45;;;18.50;99.90;;;;;;4901982;29;20229;-75
2022/12/20 05:16:10;;;;;;;8.07;4.53;;;18.40;99.90;;;;;;4902129;29;20217;-76
2022/12/20 05:18:37;;;;;;;8.57;3.90;;;18.40;99.90;;;;;;4902172;29;20221;-76
2022/12/20 05:26:37;;;;;;;4.38;3.70;;;18.40;99.90;;;;;;4902084;29;20281;-74
2022/12/20 05:29:04;;;;;;;9.07;4.38;;;18.40;99.90;;;;;;4903162;29;20190;-76
2022/12/20 05:31:31;;;;;;;7.68;4.47;;;18.40;99.90;;;;;;4901489;29;20202;-74
2022/12/20 05:33:58;;;;;;;8.75;3.92;;;18.40;99.90;;;;;;4901650;29;20225;-74
2022/12/20 05:36:25;;;;;;;8.50;4.43;;;18.40;99.90;;;;;;4901993;29;20213;-75
2022/12/20 05:38:51;;;;;;;8.90;4.65;;;18.50;99.90;;;;;;4902549;29;20229;-75
2022/12/20 05:41:18;;;;;;;5.40;4.40;;;18.40;99.90;;;;;;4901986;29;20704;-75
2022/12/20 05:43:46;;;;;;;7.13;4.60;;;18.40;99.90;;;;;;4902367;29;20234;-75
2022/12/20 05:46:14;;;;;;;6.50;4.35;;;18.30;99.90;;;;;;4902614;29;20232;-75
2022/12/20 05:48:40;;;;;;;8.57;4.03;;;18.40;99.90;;;;;;4902916;29;20202;-75
2022/12/20 05:51:08;;;;;;;10.32;5.40;;;18.30;99.90;;;;;;4903177;29;20296;-75
2022/12/20 05:53:35;;;;;;;7.07;5.15;;;18.30;99.90;;;;;;4902370;29;20324;-76
2022/12/20 05:56:01;;;;;;;18.25;4.60;;;18.40;99.90;;;;;;4901428;29;20220;-76
2022/12/20 05:58:28;;;;;;;9.23;4.60;;;18.40;99.90;;;;;;4903403;29;20214;-77
2022/12/20 06:00:56;;;;;;;5.18;4.25;;;18.30;99.90;;;;;;4902654;29;20214;-75
2022/12/20 06:03:23;;;;;;;11.15;4.80;;;18.30;99.90;;;;;;4902567;29;20261;-74
2022/12/20 06:05:50;;;;;;;11.38;4.85;;;18.30;99.90;;;;;;4901589;29;20261;-75
2022/12/20 06:08:17;;;;;;;11.02;4.93;;;18.30;99.90;;;;;;4901635;29;20201;-73
2022/12/20 06:10:44;;;;;;;7.97;4.40;;;18.30;99.90;;;;;;4901026;29;20209;-74
2022/12/20 06:13:11;;;;;;;4.90;4.40;;;18.30;99.90;;;;;;4901206;29;20208;-74
2022/12/20 06:15:38;;;;;;;6.60;4.70;;;18.30;99.90;;;;;;4900734;29;20581;-74
2022/12/20 06:18:06;;;;;;;7.18;4.63;;;18.30;99.90;;;;;;4900998;29;20248;-74
2022/12/20 06:20:33;;;;;;;7.63;5.03;;;18.30;99.90;;;;;;4901026;29;20201;-76
2022/12/20 06:23:01;;;;;;;7.50;4.03;;;17.90;99.90;;;;;;4901026;29;20217;-76
2022/12/20 06:25:28;;;;;;;9.05;4.75;;;18.20;99.90;;;;;;4900991;29;20593;-76
2022/12/20 06:27:54;;;;;;;6.50;4.22;;;18.60;99.90;;;;;;4901137;29;20201;-75
2022/12/20 06:30:22;;;;;;;33.38;5.93;;;18.30;99.90;;;;;;4901042;29;20201;-75
2022/12/20 06:32:48;;;;;;;15.30;6.45;;;18.50;99.90;;;;;;4901214;29;20206;-75
2022/12/20 06:35:17;;;;;;;26.42;7.78;;;18.40;99.90;;;;;;4901416;29;20234;-75
2022/12/20 06:37:43;;;;;;;23.02;7.75;;;18.70;99.90;;;;;;4901097;29;20229;-75
2022/12/20 06:40:12;;;;;;;20.58;8.43;;;18.60;99.90;;;;;;4901068;29;20212;-75
2022/12/20 06:42:39;;;;;;;33.53;9.52;;;18.50;99.90;;;;;;4901350;29;20219;-75
2022/12/20 06:45:07;;;;;;;31.23;8.45;;;18.50;99.90;;;;;;4901101;29;20237;-75
2022/12/20 06:47:34;;;;;;;27.17;8.57;;;18.60;99.90;;;;;;4901470;29;20202;-75
2022/12/20 06:50:01;;;;;;;23.25;7.95;;;18.50;99.90;;;;;;4901477;29;20202;-75
2022/12/20 06:52:29;;;;;;;22.05;8.75;;;18.60;99.90;;;;;;4900957;29;20210;-75
2022/12/20 06:54:56;;;;;;;21.27;7.75;;;18.50;99.90;;;;;;4901210;29;20228;-75
2022/12/20 06:57:22;;;;;;;27.35;8.50;;;18.50;99.90;;;;;;4901254;29;20222;-75
2022/12/20 06:59:49;;;;;;;32.85;7.65;;;18.60;99.90;;;;;;4901438;29;20216;-75
2022/12/20 07:02:16;;;;;;;26.73;8.07;;;18.60;99.90;;;;;;4901463;29;20334;-75
2022/12/20 07:04:43;;;;;;;27.27;8.15;;;18.60;99.90;;;;;;4900924;29;20229;-75
2022/12/20 07:07:11;;;;;;;28.08;8.15;;;18.70;99.90;;;;;;4901194;29;20217;-75
2022/12/20 07:09:40;;;;;;;28.13;8.13;;;18.60;99.90;;;;;;4901064;29;20217;-76
2022/12/20 07:12:07;;;;;;;18.10;7.70;;;18.70;99.90;;;;;;4902498;29;20206;-75
2022/12/20 07:14:34;;;;;;;20.52;8.00;;;18.70;99.90;;;;;;4902822;29;20233;-75
2022/12/20 07:17:01;;;;;;;15.38;7.22;;;18.90;99.90;;;;;;4902949;29;20209;-75
2022/12/20 07:19:27;;;;;;;16.15;7.53;;;18.80;99.90;;;;;;4902333;29;20225;-76
2022/12/20 07:21:55;;;;;;;19.50;6.72;;;18.80;99.90;;;;;;4901833;29;20292;-75
2022/12/20 07:24:22;;;;;;;35.40;8.20;;;18.90;99.90;;;;;;4899980;29;20713;-75
2022/12/20 07:26:50;;;;;;;22.35;7.65;;;18.80;99.90;;;;;;4900097;29;20209;-74
2022/12/20 07:29:16;;;;;;;17.17;8.15;;;18.80;99.90;;;;;;4900546;29;20210;-74
2022/12/20 07:31:43;;;;;;;17.77;7.40;;;18.70;99.90;;;;;;4900515;29;20209;-74
2022/12/20 07:34:10;;;;;;;19.63;7.13;;;18.60;99.90;;;;;;4900342;29;20226;-73
2022/12/20 07:36:37;;;;;;;18.77;7.72;;;18.50;99.90;;;;;;4900469;29;20217;-74
2022/12/20 07:39:04;;;;;;;19.48;7.05;;;18.50;99.90;;;;;;4899778;29;20217;-73
2022/12/20 07:41:31;;;;;;;20.35;8.15;;;18.50;99.90;;;;;;4899594;29;20213;-74
2022/12/20 07:43:59;;;;;;;20.40;8.32;;;18.40;99.90;;;;;;4899680;29;20232;-74
2022/12/20 07:46:26;;;;;;;22.75;8.30;;;18.40;99.90;;;;;;4899623;29;20209;-74
2022/12/20 07:48:53;;;;;;;21.05;7.68;;;18.40;99.90;;;;;;4899577;29;20194;-74
2022/12/20 07:51:25;;;;;;;16.65;7.32;;;18.40;99.90;;;;;;4899714;29;20213;-74
2022/12/20 07:54:00;;;;;;;24.40;7.30;;;18.30;99.90;;;;;;4899825;29;20229;-74
2022/12/20 07:56:27;;;;;;;20.67;7.97;;;18.30;99.90;;;;;;4899645;29;20213;-74
2022/12/20 07:58:58;;;;;;;17.90;7.50;;;18.30;99.90;;;;;;4899063;29;20225;-74
2022/12/20 08:01:27;;;;;;;22.20;7.43;;;18.30;99.90;;;;;;4898829;29;20197;-74
2022/12/20 08:04:00;;;;;;;17.15;7.60;;;18.30;99.90;;;;;;4898927;29;20225;-74
2022/12/20 08:06:26;;;;;;;24.15;8.35;;;18.20;99.90;;;;;;4899037;29;20222;-74
2022/12/20 08:08:57;;;;;;;22.58;7.00;;;18.20;99.90;;;;;;4898942;29;20554;-75
2022/12/20 08:11:25;;;;;;;18.92;7.53;;;18.20;99.90;;;;;;4898653;29;20201;-74
2022/12/20 08:13:52;;;;;;;18.38;8.05;;;18.20;99.90;;;;;;4898775;29;20230;-74
2022/12/20 08:16:19;;;;;;;13.13;7.15;;;18.10;99.90;;;;;;4898824;29;20566;-74
2022/12/20 08:18:47;;;;;;;14.93;6.93;;;18.10;99.90;;;;;;4898693;29;20249;-74
2022/12/20 08:21:13;;;;;;;15.52;7.53;;;18.10;99.90;;;;;;4898761;29;20206;-74
2022/12/20 08:23:40;;;;;;;15.68;6.65;;;18.10;99.90;;;;;;4898600;29;20721;-74
2022/12/20 08:26:07;;;;;;;17.17;6.97;;;18.10;99.90;;;;;;4898637;29;20210;-74
2022/12/20 08:28:34;;;;;;;15.60;6.85;;;18.10;99.90;;;;;;4898698;29;20225;-74
2022/12/20 08:31:02;;;;;;;12.52;6.78;;;18.10;99.90;;;;;;4898670;29;20232;-74
2022/12/20 08:33:29;;;;;;;16.20;7.18;;;18.10;99.90;;;;;;4898209;29;20589;-74
2022/12/20 08:36:01;;;;;;;17.30;6.72;;;18.10;99.50;;;;;;4898623;29;20201;-74
2022/12/20 08:38:28;;;;;;;16.27;7.43;;;18.10;99.40;;;;;;4898518;29;20286;-74
2022/12/20 08:40:55;;;;;;;21.35;7.15;;;18.10;99.20;;;;;;4898584;29;20205;-74
2022/12/20 08:43:22;;;;;;;13.00;7.18;;;18.10;99.30;;;;;;4898479;29;20213;-74
2022/12/20 08:45:53;;;;;;;13.23;6.43;;;18.00;99.20;;;;;;4898522;29;20217;-74
2022/12/20 08:48:19;;;;;;;19.77;6.85;;;18.00;99.10;;;;;;4898553;29;20186;-74
2022/12/20 08:50:46;;;;;;;16.33;7.35;;;18.00;99.10;;;;;;4898175;29;20577;-74
2022/12/20 08:53:14;;;;;;;12.93;6.38;;;18.00;99.10;;;;;;4898412;29;20209;-74
2022/12/20 08:55:41;;;;;;;13.68;7.18;;;18.10;99.20;;;;;;4898324;29;20206;-74
2022/12/20 08:58:08;;;;;;;13.65;7.28;;;18.10;99.20;;;;;;4898079;29;20205;-74
2022/12/20 09:00:35;;;;;;;16.70;7.28;;;18.00;98.90;;;;;;4898125;29;20234;-74
2022/12/20 09:03:02;;;;;;;15.73;8.05;;;18.00;98.90;;;;;;4898382;29;20233;-74
2022/12/20 09:05:29;;;;;;;11.75;6.63;;;18.00;99.10;;;;;;4898419;29;20209;-74
2022/12/20 09:07:55;;;;;;;13.38;7.10;;;18.00;99.10;;;;;;4898400;29;20202;-74
2022/12/20 09:10:23;;;;;;;11.73;7.03;;;17.00;97.30;;;;;;4898312;29;20210;-74
2022/12/20 09:12:50;;;;;;;11.50;5.80;;;18.00;97.80;;;;;;4898455;29;20206;-74
2022/12/20 09:15:17;;;;;;;9.88;6.93;;;18.00;97.80;;;;;;4899117;29;20623;-74
2022/12/20 09:17:46;;;;;;;15.23;6.95;;;17.90;97.70;;;;;;4898071;29;20202;-74
2022/12/20 09:20:13;;;;;;;14.07;6.93;;;18.00;97.80;;;;;;4898185;29;20226;-74
2022/12/20 09:22:40;;;;;;;11.68;6.28;;;17.90;98.00;;;;;;4898231;29;20205;-74
2022/12/20 09:25:07;;;;;;;10.13;6.60;;;18.00;97.60;;;;;;4898226;29;20230;-74
2022/12/20 09:27:36;;;;;;;12.05;7.18;;;17.90;97.30;;;;;;4898011;29;20725;-74
2022/12/20 09:30:02;;;;;;;16.27;7.13;;;18.00;97.40;;;;;;4898448;29;20260;-74
2022/12/20 09:32:29;;;;;;;9.88;6.80;;;18.00;97.40;;;;;;4900676;29;20209;-74
2022/12/20 09:34:55;;;;;;;16.08;7.03;;;17.90;97.50;;;;;;4901615;29;20242;-74
2022/12/20 09:37:22;;;;;;;9.30;6.88;;;18.00;97.60;;;;;;4901645;29;20238;-74
2022/12/20 09:39:50;;;;;;;9.70;6.03;;;18.00;97.60;;;;;;4901524;29;20226;-74
2022/12/20 09:42:19;;;;;;;7.60;6.00;;;18.00;97.80;;;;;;4901538;29;20209;-74
2022/12/20 09:44:47;;;;;;;10.57;7.10;;;17.90;98.60;;;;;;4901135;29;20704;-74
2022/12/20 09:47:18;;;;;;;10.25;6.68;;;18.00;95.80;;;;;;4901430;29;20253;-74
2022/12/20 09:49:49;;;;;;;8.70;6.55;;;17.90;95.80;;;;;;4901440;29;20193;-74
2022/12/20 09:52:31;;;;;;;11.20;6.00;;;17.90;95.80;;;;;;4901419;29;20197;-74
2022/12/20 09:55:13;;;;;;;12.35;6.70;;;18.00;95.70;;;;;;4901249;29;20252;-74
2022/12/20 09:57:50;;;;;;;17.98;6.97;;;18.00;95.60;;;;;;4901477;29;20237;-75
2022/12/20 10:00:20;;;;;;;18.17;6.43;;;18.00;95.80;;;;;;4901310;29;20210;-74
2022/12/20 10:02:47;;;;;;;22.70;6.57;;;18.20;96.40;;;;;;4901277;29;20190;-75
2022/12/20 10:05:17;;;;;;;13.13;6.07;;;18.30;96.60;;;;;;4901023;29;20237;-75
2022/12/20 10:07:53;;;;;;;19.08;6.85;;;18.30;96.40;;;;;;4901217;29;20242;-75
2022/12/20 10:10:39;;;;;;;15.95;5.85;;;18.40;96.30;;;;;;4900865;29;20634;-75
2022/12/20 10:13:19;;;;;;;20.90;6.18;;;18.50;95.90;;;;;;4901011;29;20230;-75
2022/12/20 10:15:52;;;;;;;12.50;6.35;;;18.50;96.00;;;;;;4900982;29;20190;-75
2022/12/20 10:18:31;;;;;;;14.82;6.47;;;18.50;95.90;;;;;;4901166;29;20205;-75
2022/12/20 10:21:04;;;;;;;15.90;6.40;;;18.50;95.70;;;;;;4900935;29;20201;-75
2022/12/20 10:23:39;;;;;;;16.02;6.35;;;18.60;95.60;;;;;;4900797;29;20230;-75
2022/12/20 10:26:10;;;;;;;14.90;6.30;;;18.80;95.60;;;;;;4900490;29;20585;-75
2022/12/20 10:28:37;;;;;;;16.15;6.05;;;18.60;95.40;;;;;;4900824;29;20228;-75
2022/12/20 10:31:11;;;;;;;19.77;6.15;;;18.60;95.40;;;;;;4900759;29;20206;-75
2022/12/20 10:33:37;;;;;;;11.50;6.47;;;18.60;95.30;;;;;;4900616;29;20230;-75
2022/12/20 10:36:22;;;;;;;21.90;6.72;;;18.60;95.30;;;;;;4900346;29;20209;-75
2022/12/20 10:38:51;;;;;;;16.23;6.07;;;18.60;95.00;;;;;;4900216;29;20700;-76
2022/12/20 10:41:20;;;;;;;21.73;6.35;;;18.60;94.90;;;;;;4900227;29;20704;-76
2022/12/20 10:43:50;;;;;;;14.60;5.93;;;18.70;94.80;;;;;;4899387;29;20225;-76
2022/12/20 10:46:19;;;;;;;13.82;5.20;;;18.60;94.60;;;;;;4900883;29;20194;-74
2022/12/20 10:48:47;;;;;;;18.42;5.72;;;18.60;94.70;;;;;;4901280;29;20213;-75
2022/12/20 10:51:17;;;;;;;16.02;5.68;;;18.50;94.60;;;;;;4902525;29;20213;-75
2022/12/20 10:53:54;;;;;;;11.98;5.40;;;18.50;94.70;;;;;;4902367;29;20234;-75
2022/12/20 10:56:22;;;;;;;13.95;5.35;;;18.40;94.60;;;;;;4901617;29;20216;-74
2022/12/20 10:58:54;;;;;;;17.63;6.25;;;18.40;94.60;;;;;;4901319;29;20229;-74
2022/12/20 11:01:26;;;;;;;14.35;5.72;;;18.40;94.60;;;;;;4900654;29;20205;-74
2022/12/20 11:03:56;;;;;;;16.20;5.43;;;18.40;94.70;;;;;;4900612;29;20600;-75
2022/12/20 11:06:26;;;;;;;11.75;5.75;;;18.30;94.60;;;;;;4900862;29;20665;-74
2022/12/20 11:09:12;;;;;;;11.27;5.20;;;18.30;94.60;;;;;;4900706;29;20182;-74
2022/12/20 11:11:38;;;;;;;12.45;5.80;;;18.30;94.70;;;;;;4901780;29;20190;-74
2022/12/20 11:14:15;;;;;;;18.48;5.82;;;18.30;94.60;;;;;;4902353;29;20225;-75
2022/12/20 11:16:46;;;;;;;10.00;5.50;;;18.30;94.50;;;;;;4901665;29;20638;-74
2022/12/20 11:19:28;;;;;;;12.60;4.85;;;18.30;94.60;;;;;;4901724;29;20210;-77
2022/12/20 11:22:02;;;;;;;8.23;5.18;;;18.30;94.50;;;;;;4902115;29;20241;-75
2022/12/20 11:24:35;;;;;;;13.05;5.68;;;18.30;94.60;;;;;;4901737;29;20229;-74
2022/12/20 11:27:16;;;;;;;14.45;5.18;;;18.30;94.50;;;;;;4902866;29;20201;-74
2022/12/20 11:30:02;;;;;;;14.02;5.63;;;18.40;94.50;;;;;;4901298;29;20201;-77
2022/12/20 11:32:41;;;;;;;11.73;5.63;;;18.30;94.20;;;;;;4906283;29;20245;-75
2022/12/20 11:35:14;;;;;;;11.57;6.10;;;18.30;94.50;;;;;;4904816;29;20229;-75
2022/12/20 11:37:49;;;;;;;10.05;5.25;;;18.30;94.60;;;;;;4904996;29;20190;-75
2022/12/20 11:40:37;;;;;;;13.80;5.75;;;18.50;95.10;;;;;;4905218;29;20225;-75
2022/12/20 11:43:27;;;;;;;13.27;5.97;;;18.70;95.40;;;;;;4905375;29;20190;-75
2022/12/20 11:46:08;;;;;;;9.38;5.35;;;18.90;95.20;;;;;;4905395;29;20276;-74
2022/12/20 11:48:51;;;;;;;11.32;5.28;;;19.10;95.40;;;;;;4904229;29;20562;-75
2022/12/20 11:51:23;;;;;;;11.77;5.45;;;19.10;95.20;;;;;;4902111;29;20189;-76
2022/12/20 11:53:56;;;;;;;9.40;6.15;;;19.20;95.20;;;;;;4901677;29;20229;-75
2022/12/20 11:56:27;;;;;;;13.68;6.25;;;19.30;95.00;;;;;;4923495;23;20229;-73
2022/12/20 11:59:00;;;;;;;13.48;5.50;;;19.40;95.10;;;;;;4899367;29;20230;-73
2022/12/20 12:01:32;;;;;;;7.55;5.43;;;19.50;95.10;;;;;;4899325;29;20197;-73
2022/12/20 12:04:06;;;;;;;16.13;5.47;;;19.50;94.90;;;;;;4899207;29;20190;-74
2022/12/20 12:06:37;;;;;;;8.10;5.20;;;19.50;94.50;;;;;;4899165;29;20229;-74
2022/12/20 12:09:14;;;;;;;13.27;6.45;;;19.50;94.30;;;;;;4899203;29;20190;-74
2022/12/20 12:11:45;;;;;;;13.48;5.60;;;19.50;93.90;;;;;;4899261;29;20193;-74
2022/12/20 12:14:22;;;;;;;12.20;5.85;;;19.50;93.60;;;;;;4899006;29;20201;-74
2022/12/20 12:16:53;;;;;;;10.77;5.97;;;19.40;93.40;;;;;;4898876;29;20225;-74
2022/12/20 12:19:24;;;;;;;8.55;5.82;;;19.40;93.20;;;;;;4898498;29;20209;-74
2022/12/20 12:21:56;;;;;;;12.43;6.15;;;19.40;93.20;;;;;;4898558;29;20190;-74
2022/12/20 12:24:28;;;;;;;19.40;6.10;;;19.30;93.20;;;;;;4898883;29;20190;-74
2022/12/20 12:26:55;;;;;;;12.07;5.95;;;19.30;93.10;;;;;;4898770;29;20236;-74
2022/12/20 12:29:22;;;;;;;11.55;6.10;;;19.20;93.10;;;;;;4898852;29;20198;-74
2022/12/20 12:31:53;;;;;;;11.43;5.90;;;19.10;80.40;;;;;;4899000;29;20210;-74
2022/12/20 12:34:34;;;;;;;8.95;6.30;;;19.10;82.90;;;;;;4898782;29;20197;-74
2022/12/20 12:37:33;;;;;;;7.80;5.88;;;19.10;82.90;;;;;;4898651;29;20244;-74
2022/12/20 12:40:29;;;;;;;7.78;5.53;;;19.00;83.00;;;;;;4898674;29;20217;-74
2022/12/20 12:43:12;;;;;;;12.38;5.88;;;19.00;83.40;;;;;;4899305;29;20201;-74
2022/12/20 12:45:46;;;;;;;9.27;5.57;;;19.00;82.70;;;;;;4898585;29;20194;-74
2022/12/20 12:48:17;;;;;;;12.02;6.05;;;18.90;83.50;;;;;;4898770;29;20221;-74
2022/12/20 12:50:47;;;;;;;12.10;6.00;;;18.90;83.60;;;;;;4898298;29;20193;-74
2022/12/20 12:53:17;;;;;;;7.28;5.80;;;18.90;83.40;;;;;;4898531;29;20613;-74
2022/12/20 12:55:46;;;;;;;11.57;6.03;;;18.80;83.40;;;;;;4898649;29;20205;-74
2022/12/20 12:58:33;;;;;;;10.07;5.47;;;18.80;83.50;;;;;;4898468;29;20185;-74
2022/12/20 13:01:03;;;;;;;12.23;6.55;;;18.80;83.40;;;;;;4898510;29;20209;-74
2022/12/20 13:03:45;;;;;;;7.50;5.72;;;18.70;83.40;;;;;;4898452;29;20193;-74
2022/12/20 13:06:58;;;;;;;8.98;5.22;;;18.70;83.80;;;;;;4899152;29;20226;-74
2022/12/20 13:09:42;;;;;;;10.50;6.00;;;18.60;82.80;;;;;;4878891;29;20326;-74
2022/12/20 13:12:49;;;;;;;10.38;5.88;;;18.60;82.80;;;;;;4902223;29;20190;-74
2022/12/20 13:15:48;;;;;;;8.63;5.38;;;18.60;82.70;;;;;;4902161;29;20193;-74
2022/12/20 13:18:28;;;;;;;7.88;5.88;;;18.50;82.70;;;;;;4901757;29;20712;-74
2022/12/20 13:21:18;;;;;;;6.70;5.60;;;18.50;82.70;;;;;;4902246;29;20209;-73
2022/12/20 13:23:45;;;;;;;8.20;4.88;;;18.60;83.50;;;;;;4902102;29;20281;-74
2022/12/20 13:26:50;;;;;;;11.77;5.63;;;18.50;83.40;;;;;;4904400;29;20725;-75
2022/12/20 13:29:27;;;;;;;8.98;5.15;;;18.60;82.90;;;;;;4901861;29;20253;-75
2022/12/20 13:31:54;;;;;;;10.63;5.40;;;18.70;84.10;;;;;;4901782;29;20205;-75
2022/12/20 13:34:53;;;;;;;7.53;5.05;;;18.70;84.60;;;;;;4901875;29;20565;-74
2022/12/20 13:37:27;;;;;;;14.20;5.50;;;18.70;84.60;;;;;;4901884;29;20268;-73
2022/12/20 13:39:55;;;;;;;10.93;5.00;;;18.60;84.40;;;;;;4901742;29;20221;-73
2022/12/20 13:42:37;;;;;;;13.10;5.13;;;18.60;84.50;;;;;;4901575;29;20236;-73
2022/12/20 13:45:11;;;;;;;14.57;5.13;;;18.60;84.40;;;;;;4901309;29;20190;-73
2022/12/20 13:47:43;;;;;;;8.48;4.70;;;18.60;85.00;;;;;;4901494;29;20243;-73
2022/12/20 13:50:34;;;;;;;11.13;4.05;;;18.50;84.50;;;;;;4902303;29;20190;-73
2022/12/20 13:53:01;;;;;;;18.25;5.30;;;18.50;84.70;;;;;;4901370;29;20190;-73
2022/12/20 13:55:34;;;;;;;6.85;4.75;;;18.50;84.70;;;;;;4901385;29;20213;-73
2022/12/20 13:58:07;;;;;;;9.00;4.53;;;18.40;84.80;;;;;;4901010;29;20236;-73
2022/12/20 14:00:34;;;;;;;18.00;4.90;;;18.40;85.20;;;;;;4900883;29;20592;-73
2022/12/20 14:03:01;;;;;;;7.28;4.95;;;18.40;85.30;;;;;;4901406;29;20217;-73
2022/12/20 14:05:33;;;;;;;6.93;4.07;;;18.40;85.30;;;;;;4901247;29;20220;-73
2022/12/20 14:08:03;;;;;;;10.68;4.47;;;18.40;85.20;;;;;;4901248;29;20245;-73
2022/12/20 14:10:31;;;;;;;6.97;4.30;;;18.40;85.10;;;;;;4901086;29;20293;-73
2022/12/20 14:12:58;;;;;;;8.88;4.15;;;18.40;85.20;;;;;;4901007;29;20213;-73
2022/12/20 14:15:30;;;;;;;8.13;3.95;;;18.50;85.00;;;;;;4901013;29;20307;-73
2022/12/20 14:17:57;;;;;;;9.68;4.68;;;18.40;84.90;;;;;;4900798;29;20233;-73
2022/12/20 14:20:29;;;;;;;8.20;4.75;;;18.40;84.90;;;;;;4900839;29;20221;-73
2022/12/20 14:22:59;;;;;;;8.57;4.20;;;18.40;84.80;;;;;;4900912;29;20222;-73
2022/12/20 14:25:32;;;;;;;8.98;4.20;;;18.40;84.90;;;;;;4900815;29;20217;-73
2022/12/20 14:27:59;;;;;;;11.23;4.32;;;18.50;84.90;;;;;;4900728;29;20293;-73
2022/12/20 14:30:31;;;;;;;13.05;5.07;;;18.40;84.80;;;;;;4900943;29;20209;-73
2022/12/20 14:32:58;;;;;;;6.97;4.03;;;18.40;84.60;;;;;;4900718;29;20228;-73
2022/12/20 14:35:26;;;;;;;13.43;4.60;;;18.40;84.70;;;;;;4900645;29;20202;-73
2022/12/20 14:37:54;;;;;;;9.27;4.43;;;18.40;84.90;;;;;;4900520;29;20249;-73
2022/12/20 14:40:21;;;;;;;10.25;4.45;;;18.40;84.90;;;;;;4900447;29;20233;-72
2022/12/20 14:42:48;;;;;;;8.57;4.07;;;18.40;84.80;;;;;;4900158;29;20582;-72
2022/12/20 14:45:21;;;;;;;12.40;4.35;;;18.40;85.10;;;;;;4900476;29;20209;-72
2022/12/20 14:47:55;;;;;;;10.30;4.75;;;18.50;85.20;;;;;;4900585;29;20237;-72
2022/12/20 14:50:27;;;;;;;5.95;4.10;;;18.40;85.00;;;;;;4900266;29;20646;-72
2022/12/20 14:52:54;;;;;;;5.15;3.80;;;18.40;85.10;;;;;;4900464;29;20193;-72
2022/12/20 14:55:24;;;;;;;10.82;4.45;;;18.50;85.30;;;;;;4900484;29;20209;-72
2022/12/20 14:57:53;;;;;;;8.38;4.03;;;18.40;85.40;;;;;;4900157;29;20272;-73
2022/12/20 15:00:22;;;;;;;11.55;4.32;;;18.40;85.40;;;;;;4901225;29;20709;-73
2022/12/20 15:03:00;;;;;;;9.77;4.43;;;18.40;85.20;;;;;;4900827;29;20205;-73
2022/12/20 15:05:47;;;;;;;10.07;3.65;;;18.40;85.20;;;;;;4900921;29;20540;-73
2022/12/20 15:08:17;;;;;;;6.10;4.07;;;18.40;85.20;;;;;;4901617;29;20190;-73
2022/12/20 15:10:59;;;;;;;9.23;3.95;;;18.30;85.20;;;;;;4900956;29;20198;-73
2022/12/20 15:13:30;;;;;;;7.10;3.70;;;18.40;84.70;;;;;;4901360;29;20194;-72
2022/12/20 15:15:59;;;;;;;7.97;3.97;;;18.40;85.40;;;;;;4903642;29;20222;-73
2022/12/20 15:18:28;;;;;;;8.45;3.75;;;18.40;85.70;;;;;;4902733;29;20218;-71
2022/12/20 15:21:02;;;;;;;9.02;4.07;;;18.40;85.90;;;;;;4902914;29;20222;-72
2022/12/20 15:23:31;;;;;;;11.38;4.43;;;18.40;85.80;;;;;;4902967;29;20602;-72
2022/12/20 15:25:58;;;;;;;16.42;5.03;;;18.40;86.00;;;;;;4902202;29;20221;-73
2022/12/20 15:28:26;;;;;;;8.48;4.63;;;18.40;86.30;;;;;;4903212;29;20209;-73
2022/12/20 15:30:54;;;;;;;9.13;4.85;;;18.40;86.80;;;;;;4903571;29;20209;-74
2022/12/20 15:33:22;;;;;;;12.50;4.78;;;18.40;87.90;;;;;;4904575;29;20209;-74
2022/12/20 15:35:51;;;;;;;9.90;4.95;;;18.30;87.70;;;;;;4902489;29;20213;-73
2022/12/20 15:38:20;;;;;;;13.82;4.80;;;18.30;87.80;;;;;;4903176;29;20685;-73
2022/12/20 15:40:49;;;;;;;11.52;4.90;;;18.30;88.70;;;;;;4903294;29;20225;-73
2022/12/20 15:43:18;;;;;;;6.05;4.55;;;18.30;89.00;;;;;;4906364;29;20212;-73
2022/12/20 15:45:47;;;;;;;7.50;4.55;;;18.30;89.00;;;;;;4900516;29;20657;-73
2022/12/20 15:48:15;;;;;;;8.73;5.20;;;18.30;89.00;;;;;;4899580;29;20216;-72
2022/12/20 15:50:44;;;;;;;6.22;4.50;;;18.30;89.00;;;;;;4898965;29;20201;-72
2022/12/20 15:53:16;;;;;;;9.82;4.93;;;18.20;89.40;;;;;;4899351;29;20265;-72
2022/12/20 15:55:43;;;;;;;8.95;4.38;;;18.20;89.70;;;;;;4905061;29;20190;-72
2022/12/20 15:58:10;;;;;;;6.07;4.38;;;18.20;89.80;;;;;;4906304;29;20616;-72
2022/12/20 16:00:41;;;;;;;8.95;4.22;;;18.20;90.10;;;;;;4904947;29;20232;-73
2022/12/20 16:03:17;;;;;;;11.25;4.38;;;18.20;90.20;;;;;;4905776;29;20222;-72
2022/12/20 16:05:45;;;;;;;6.90;4.57;;;18.20;90.00;;;;;;4904979;29;20260;-73
2022/12/20 16:08:13;;;;;;;8.35;4.45;;;18.20;90.30;;;;;;4901339;29;20209;-73
2022/12/20 16:10:41;;;;;;;6.80;4.38;;;18.10;90.40;;;;;;4902119;29;20213;-73
2022/12/20 16:13:14;;;;;;;8.25;4.30;;;18.20;90.70;;;;;;4903639;29;20237;-73
2022/12/20 16:15:41;;;;;;;6.68;4.22;;;18.20;90.80;;;;;;4903407;29;20181;-73
2022/12/20 16:18:07;;;;;;;11.55;4.38;;;18.20;91.00;;;;;;4901767;29;20658;-73
2022/12/20 16:20:34;;;;;;;4.85;3.95;;;18.20;91.20;;;;;;4902201;29;20257;-72
2022/12/20 16:23:02;;;;;;;7.57;4.60;;;18.30;91.40;;;;;;4901167;29;20210;-72
2022/12/20 16:25:32;;;;;;;8.65;4.18;;;18.30;91.80;;;;;;4902200;29;20205;-71
2022/12/20 16:27:59;;;;;;;17.75;4.28;;;18.30;91.90;;;;;;4902852;29;20323;-74
2022/12/20 16:30:26;;;;;;;23.23;4.13;;;18.30;92.10;;;;;;4902132;29;20210;-74
2022/12/20 16:32:54;;;;;;;14.60;4.40;;;18.30;92.00;;;;;;4902349;29;20210;-71
2022/12/20 16:35:26;;;;;;;13.38;3.88;;;18.30;92.00;;;;;;4901075;29;20669;-73
2022/12/20 16:37:54;;;;;;;7.40;3.90;;;18.40;92.10;;;;;;4901610;29;20657;-72
2022/12/20 16:40:22;;;;;;;9.73;3.95;;;18.40;92.10;;;;;;4900213;29;20209;-74
2022/12/20 16:42:50;;;;;;;19.02;4.47;;;18.40;92.00;;;;;;4900562;29;20272;-72
2022/12/20 16:45:19;;;;;;;7.18;4.05;;;18.40;91.80;;;;;;4902232;29;20205;-71
2022/12/20 16:47:46;;;;;;;13.95;4.22;;;18.50;92.00;;;;;;4899769;29;20710;-73
2022/12/20 16:50:13;;;;;;;9.60;4.18;;;18.50;92.50;;;;;;4902119;29;20232;-73
2022/12/20 16:52:40;;;;;;;10.07;4.57;;;18.60;92.70;;;;;;4901834;29;20229;-73
2022/12/20 16:55:13;;;;;;;13.48;3.50;;;18.60;92.60;;;;;;4901522;29;20578;-73
2022/12/20 16:57:40;;;;;;;11.93;4.30;;;18.60;92.40;;;;;;4900611;29;20245;-74
2022/12/20 17:00:15;;;;;;;9.95;3.72;;;18.60;92.40;;;;;;4898577;29;20294;-74
2022/12/20 17:02:42;;;;;;;13.75;4.07;;;18.60;92.40;;;;;;4898578;29;20209;-74
2022/12/20 17:05:22;;;;;;;15.15;4.30;;;18.60;92.80;;;;;;4899071;29;20213;-74
2022/12/20 17:07:49;;;;;;;18.33;4.90;;;18.50;93.00;;;;;;4899107;29;20563;-72
2022/12/20 17:10:17;;;;;;;8.30;4.30;;;18.50;93.40;;;;;;4898340;29;20205;-72
2022/12/20 17:12:44;;;;;;;20.30;3.85;;;18.40;93.40;;;;;;4898265;29;20202;-72
2022/12/20 17:15:19;;;;;;;15.40;4.32;;;18.30;93.30;;;;;;4898191;29;20228;-72
2022/12/20 17:17:46;;;;;;;13.55;4.38;;;18.40;93.40;;;;;;4899218;29;20319;-72
2022/12/20 17:20:14;;;;;;;14.20;3.90;;;18.30;93.50;;;;;;4897996;29;20749;-72
2022/12/20 17:22:41;;;;;;;17.67;4.25;;;18.20;93.50;;;;;;4898226;29;20226;-72
2022/12/20 17:25:21;;;;;;;9.77;4.63;;;18.30;94.10;;;;;;4898034;29;20678;-71
2022/12/20 17:27:48;;;;;;;23.15;4.57;;;18.20;93.90;;;;;;4900433;29;20233;-71
2022/12/20 17:30:17;;;;;;;12.23;4.80;;;18.20;94.40;;;;;;4902441;29;20569;-69
2022/12/20 17:32:44;;;;;;;11.95;4.32;;;18.30;94.40;;;;;;4905344;29;20198;-73
2022/12/20 17:35:23;;;;;;;12.70;4.22;;;18.30;94.50;;;;;;4906172;29;20213;-70
2022/12/20 17:37:54;;;;;;;8.63;4.13;;;18.40;94.50;;;;;;4906372;29;20240;-70
2022/12/20 17:40:22;;;;;;;10.57;4.45;;;18.30;94.40;;;;;;4904776;29;20258;-71
2022/12/20 17:42:49;;;;;;;13.43;4.38;;;18.40;94.50;;;;;;4905131;29;20233;-71
2022/12/20 17:45:27;;;;;;;13.25;4.30;;;18.40;94.60;;;;;;4905681;29;20206;-72
2022/12/20 17:47:56;;;;;;;8.43;4.35;;;18.40;94.60;;;;;;4905513;29;20213;-72
2022/12/20 17:50:26;;;;;;;13.48;4.07;;;18.50;94.60;;;;;;4904588;29;20538;-74
2022/12/20 17:52:55;;;;;;;9.55;4.35;;;18.40;94.50;;;;;;4907765;29;20235;-73
2022/12/20 17:55:24;;;;;;;11.18;3.97;;;18.50;94.40;;;;;;4909689;29;20313;-73
2022/12/20 17:57:52;;;;;;;8.55;4.15;;;18.50;94.60;;;;;;4907432;29;20234;-72